Terminal Aerodrome Forecast
Issued by NWS

Home | Current Version | Previous Version | Text Only | Print | Product List | Glossary On
Versions: 1 2 3 4 5 6 7 8 9 10 11 12 13 14 15
000
FTUS41 KBOX 271737
TAFHYA
TAF
KHYA 271737Z 2718/2818 19012KT P6SM FEW015
     FM272300 21008KT P6SM VCSH SCT015 BKN070
     FM280300 24006KT P6SM VCSH BKN015
     FM281100 26004KT 6SM BR BKN012
     FM281300 26005KT P6SM SCT015
     FM281700 19005KT P6SM SCT030 BKN060=

USA.gov is the U.S. government's official web portal to all federal, state and local government web resources and services.